Time;durP1;ratioP1;P1;durP2;ratioP2;P2;SDS_P1;SDS_P2;PMS_P1;PMS_P2;Temp;Humidity;BMP_temperature;BMP_pressure;BME280_temperature;BME280_humidity;BME280_pressure;Samples;Min_cycle;Max_cycle;Signal;HPM_P1;HPM_P2
2022/01/02 00:00:02;;;;;;;0.00;0.00;;;;;;;;;;4976257;28;20220;-72
2022/01/02 00:02:31;;;;;;;0.23;0.20;;;;;;;;;;4976842;28;20202;-72
2022/01/02 00:05:03;;;;;;;0.07;0.07;;;;;;;;;;4976936;28;20665;-72
2022/01/02 00:07:32;;;;;;;0.00;0.00;;;;;;;;;;4976983;28;20276;-72
2022/01/02 00:10:04;;;;;;;0.00;0.00;;;;;;;;;;4977467;28;20206;-72
2022/01/02 00:12:33;;;;;;;0.00;0.00;;;;;;;;;;4977157;28;20216;-71
2022/01/02 00:15:04;;;;;;;0.20;0.20;;;;;;;;;;4976587;28;20209;-72
2022/01/02 00:17:33;;;;;;;0.00;0.00;;;;;;;;;;4975857;28;20248;-72
2022/01/02 00:20:10;;;;;;;0.00;0.00;;;;;;;;;;4976769;28;20201;-71
2022/01/02 00:22:41;;;;;;;0.10;0.10;;;;;;;;;;4976777;28;20342;-71
2022/01/02 00:25:18;;;;;;;0.00;0.00;;;;;;;;;;4976655;28;20662;-72
2022/01/02 00:27:47;;;;;;;0.30;0.30;;;;;;;;;;4976327;28;20272;-72
2022/01/02 00:30:15;;;;;;;0.00;0.00;;;;;;;;;;4976386;28;20561;-72
2022/01/02 00:32:45;;;;;;;0.00;0.00;;;;;;;;;;4976087;28;20198;-72
2022/01/02 00:35:13;;;;;;;0.00;0.00;;;;;;;;;;4976088;28;20613;-71
2022/01/02 00:37:42;;;;;;;0.00;0.00;;;;;;;;;;4975755;28;20221;-71
2022/01/02 00:40:12;;;;;;;0.00;0.00;;;;;;;;;;4976273;28;20214;-72
2022/01/02 00:42:41;;;;;;;0.00;0.00;;;;;;;;;;4976791;28;20198;-71
2022/01/02 00:45:14;;;;;;;0.00;0.00;;;;;;;;;;4976343;28;20205;-72
2022/01/02 00:47:45;;;;;;;0.00;0.00;;;;;;;;;;4975909;28;20555;-72
2022/01/02 00:50:15;;;;;;;0.10;0.10;;;;;;;;;;4976144;28;20556;-71
2022/01/02 00:52:45;;;;;;;0.13;0.13;;;;;;;;;;4976308;28;20201;-72
2022/01/02 00:55:15;;;;;;;0.00;0.00;;;;;;;;;;4976320;28;20612;-72
2022/01/02 00:57:44;;;;;;;0.00;0.00;;;;;;;;;;4976286;28;20292;-72
2022/01/02 01:00:14;;;;;;;0.00;0.00;;;;;;;;;;4975704;28;20209;-72
2022/01/02 01:02:45;;;;;;;0.20;0.20;;;;;;;;;;4975977;28;20245;-72
2022/01/02 01:05:19;;;;;;;0.00;0.00;;;;;;;;;;4975892;28;20674;-72
2022/01/02 01:07:48;;;;;;;0.00;0.00;;;;;;;;;;4976014;28;20225;-72
2022/01/02 01:10:18;;;;;;;0.20;0.10;;;;;;;;;;4975389;28;20256;-72
2022/01/02 01:12:50;;;;;;;0.00;0.00;;;;;;;;;;4975124;28;20292;-72
2022/01/02 01:15:19;;;;;;;0.00;0.00;;;;;;;;;;4976017;28;20218;-72
2022/01/02 01:17:47;;;;;;;0.00;0.00;;;;;;;;;;4975674;28;20241;-72
2022/01/02 01:20:16;;;;;;;0.00;0.00;;;;;;;;;;4975465;28;20205;-72
2022/01/02 01:22:46;;;;;;;0.00;0.00;;;;;;;;;;4975653;28;20264;-72
2022/01/02 01:25:16;;;;;;;0.00;0.00;;;;;;;;;;4975693;28;20225;-72
2022/01/02 01:27:46;;;;;;;0.00;0.00;;;;;;;;;;4975513;28;20218;-72
2022/01/02 01:30:16;;;;;;;0.00;0.00;;;;;;;;;;4975042;28;20206;-72
2022/01/02 01:32:44;;;;;;;0.00;0.00;;;;;;;;;;4975402;28;20213;-72
2022/01/02 01:35:13;;;;;;;0.00;0.00;;;;;;;;;;4975718;28;20265;-72
2022/01/02 01:37:42;;;;;;;0.00;0.00;;;;;;;;;;4975430;28;20261;-71
2022/01/02 01:40:15;;;;;;;0.00;0.00;;;;;;;;;;4975260;28;20300;-72
2022/01/02 01:42:55;;;;;;;0.00;0.00;;;;;;;;;;4975631;28;20716;-72
2022/01/02 01:45:31;;;;;;;0.00;0.00;;;;;;;;;;4974709;28;20588;-71
2022/01/02 01:48:01;;;;;;;0.00;0.00;;;;;;;;;;4974888;28;20315;-71
2022/01/02 01:50:31;;;;;;;0.00;0.00;;;;;;;;;;4974688;28;20265;-71
2022/01/02 01:52:59;;;;;;;0.00;0.00;;;;;;;;;;4975103;28;20241;-72
2022/01/02 01:55:31;;;;;;;0.00;0.00;;;;;;;;;;4975089;28;20225;-72
2022/01/02 01:58:00;;;;;;;0.00;0.00;;;;;;;;;;4974339;28;20615;-72
2022/01/02 02:00:33;;;;;;;0.00;0.00;;;;;;;;;;4974841;28;20584;-71
2022/01/02 02:03:02;;;;;;;0.00;0.00;;;;;;;;;;4975182;28;20578;-71
2022/01/02 02:05:30;;;;;;;0.00;0.00;;;;;;;;;;4974963;28;20658;-72
2022/01/02 02:07:59;;;;;;;0.00;0.00;;;;;;;;;;4974188;28;20606;-72
2022/01/02 02:10:34;;;;;;;0.00;0.00;;;;;;;;;;4974334;28;20666;-71
2022/01/02 02:13:04;;;;;;;0.00;0.00;;;;;;;;;;4974889;28;20209;-72
2022/01/02 02:15:34;;;;;;;0.00;0.00;;;;;;;;;;4974988;28;20209;-72
2022/01/02 02:18:02;;;;;;;0.00;0.00;;;;;;;;;;4974945;28;20273;-72
2022/01/02 02:20:33;;;;;;;0.00;0.00;;;;;;;;;;4974510;28;20217;-72
2022/01/02 02:23:02;;;;;;;0.00;0.00;;;;;;;;;;4974482;28;20260;-71
2022/01/02 02:25:32;;;;;;;0.00;0.00;;;;;;;;;;4974884;28;20209;-71
2022/01/02 02:28:01;;;;;;;0.00;0.00;;;;;;;;;;4974860;28;20565;-71
2022/01/02 02:30:32;;;;;;;0.00;0.00;;;;;;;;;;4962555;28;20631;-71
2022/01/02 02:33:02;;;;;;;0.00;0.00;;;;;;;;;;4963518;28;20615;-72
2022/01/02 02:35:32;;;;;;;0.00;0.00;;;;;;;;;;4974873;28;20214;-71
2022/01/02 02:38:02;;;;;;;0.00;0.00;;;;;;;;;;4974388;28;20646;-72
2022/01/02 02:40:31;;;;;;;0.00;0.00;;;;;;;;;;4973614;28;20205;-72
2022/01/02 02:43:03;;;;;;;0.00;0.00;;;;;;;;;;4974450;28;20261;-72
2022/01/02 02:51:20;;;;;;;0.00;0.00;;;;;;;;;;4933799;29;20211;-71
2022/01/02 02:53:51;;;;;;;0.00;0.00;;;;;;;;;;4961201;28;20206;-71
2022/01/02 02:56:22;;;;;;;0.00;0.00;;;;;;;;;;4974365;28;20217;-72
2022/01/02 02:58:55;;;;;;;0.00;0.00;;;;;;;;;;4974118;28;20229;-73
2022/01/02 03:01:24;;;;;;;0.00;0.00;;;;;;;;;;4977015;28;20740;-72
2022/01/02 03:03:53;;;;;;;0.00;0.00;;;;;;;;;;4978206;28;20264;-73
2022/01/02 03:06:22;;;;;;;0.00;0.00;;;;;;;;;;4977851;28;20724;-72
2022/01/02 03:08:52;;;;;;;0.00;0.00;;;;;;;;;;4977892;28;20350;-72
2022/01/02 03:11:21;;;;;;;0.00;0.00;;;;;;;;;;4962381;28;20202;-72
2022/01/02 03:13:51;;;;;;;0.00;0.00;;;;;;;;;;4958891;29;20210;-72
2022/01/02 03:16:20;;;;;;;0.00;0.00;;;;;;;;;;4958827;29;20626;-73
2022/01/02 03:18:48;;;;;;;0.00;0.00;;;;;;;;;;4958423;29;20284;-74
2022/01/02 03:21:17;;;;;;;0.00;0.00;;;;;;;;;;4958442;29;20206;-73
2022/01/02 03:23:45;;;;;;;0.00;0.00;;;;;;;;;;4976648;28;20198;-73
2022/01/02 03:26:15;;;;;;;0.00;0.00;;;;;;;;;;4977839;28;20716;-73
2022/01/02 03:28:43;;;;;;;0.00;0.00;;;;;;;;;;4977713;28;20258;-74
2022/01/02 03:31:11;;;;;;;0.00;0.00;;;;;;;;;;4977663;28;20214;-73
2022/01/02 03:33:40;;;;;;;0.00;0.00;;;;;;;;;;4977782;28;20260;-73
2022/01/02 03:36:09;;;;;;;0.00;0.00;;;;;;;;;;4977869;28;20623;-74
2022/01/02 03:38:38;;;;;;;0.00;0.00;;;;;;;;;;4977153;28;20253;-73
2022/01/02 03:41:06;;;;;;;0.00;0.00;;;;;;;;;;4977758;28;20206;-74
2022/01/02 03:43:36;;;;;;;0.00;0.00;;;;;;;;;;4977546;28;20206;-73
2022/01/02 03:46:04;;;;;;;0.00;0.00;;;;;;;;;;4977619;28;20272;-73
2022/01/02 03:48:33;;;;;;;0.00;0.00;;;;;;;;;;4977370;28;20228;-74
2022/01/02 03:51:05;;;;;;;0.00;0.00;;;;;;;;;;4977486;28;20259;-74
2022/01/02 03:53:34;;;;;;;0.00;0.00;;;;;;;;;;4961928;28;20570;-74
2022/01/02 03:56:02;;;;;;;0.00;0.00;;;;;;;;;;4958154;29;20214;-75
2022/01/02 03:58:31;;;;;;;0.00;0.00;;;;;;;;;;4970442;28;20296;-75
2022/01/02 04:01:01;;;;;;;0.00;0.00;;;;;;;;;;4975135;28;20640;-75
2022/01/02 04:03:30;;;;;;;0.00;0.00;;;;;;;;;;4976958;28;20216;-75
2022/01/02 04:05:58;;;;;;;0.00;0.00;;;;;;;;;;4976137;28;20206;-73
2022/01/02 04:08:27;;;;;;;0.00;0.00;;;;;;;;;;4957595;29;20222;-75
2022/01/02 04:10:56;;;;;;;0.00;0.00;;;;;;;;;;4970864;28;20213;-71
2022/01/02 04:13:24;;;;;;;0.00;0.00;;;;;;;;;;4975993;28;20245;-74
2022/01/02 04:15:53;;;;;;;0.00;0.00;;;;;;;;;;4976741;28;20554;-73
2022/01/02 04:18:22;;;;;;;0.00;0.00;;;;;;;;;;4957280;29;20646;-74
2022/01/02 04:20:51;;;;;;;0.00;0.00;;;;;;;;;;4957600;29;20211;-73
2022/01/02 04:23:20;;;;;;;0.00;0.00;;;;;;;;;;4964678;28;20198;-75
2022/01/02 04:25:48;;;;;;;0.00;0.00;;;;;;;;;;4976674;28;20210;-74
2022/01/02 04:28:17;;;;;;;0.00;0.00;;;;;;;;;;4977188;28;20221;-73
2022/01/02 04:30:45;;;;;;;0.00;0.00;;;;;;;;;;4972579;28;20245;-74
2022/01/02 04:33:13;;;;;;;0.00;0.00;;;;;;;;;;4976733;28;20297;-73
2022/01/02 04:35:43;;;;;;;0.00;0.00;;;;;;;;;;4976692;28;20280;-74
2022/01/02 04:38:13;;;;;;;0.00;0.00;;;;;;;;;;4976232;28;20240;-74
2022/01/02 04:40:42;;;;;;;0.00;0.00;;;;;;;;;;4976415;28;20202;-75
2022/01/02 04:43:10;;;;;;;0.00;0.00;;;;;;;;;;4976769;28;20202;-74
2022/01/02 04:45:39;;;;;;;0.00;0.00;;;;;;;;;;4976226;28;20202;-73
2022/01/02 04:48:07;;;;;;;0.00;0.00;;;;;;;;;;4976576;28;20675;-73
2022/01/02 04:50:35;;;;;;;0.00;0.00;;;;;;;;;;4976222;28;20202;-75
2022/01/02 04:53:05;;;;;;;0.00;0.00;;;;;;;;;;4976443;28;20264;-73
2022/01/02 04:55:34;;;;;;;0.00;0.00;;;;;;;;;;4976390;28;20205;-73
2022/01/02 04:58:02;;;;;;;0.00;0.00;;;;;;;;;;4961853;28;20276;-74
2022/01/02 05:00:31;;;;;;;0.00;0.00;;;;;;;;;;4975895;28;20268;-75
2022/01/02 05:02:59;;;;;;;0.00;0.00;;;;;;;;;;4976114;28;20210;-75
2022/01/02 05:05:28;;;;;;;0.00;0.00;;;;;;;;;;4976061;28;20666;-73
2022/01/02 05:07:56;;;;;;;0.00;0.00;;;;;;;;;;4975987;28;20772;-74
2022/01/02 05:10:26;;;;;;;0.00;0.00;;;;;;;;;;4975939;28;20206;-73
2022/01/02 05:12:54;;;;;;;0.00;0.00;;;;;;;;;;4966268;28;20203;-74
2022/01/02 05:15:23;;;;;;;0.00;0.00;;;;;;;;;;4956900;29;20242;-75
2022/01/02 05:17:51;;;;;;;0.00;0.00;;;;;;;;;;4956447;29;20234;-75
2022/01/02 05:20:19;;;;;;;0.00;0.00;;;;;;;;;;4958499;28;20230;-75
2022/01/02 05:22:48;;;;;;;0.00;0.00;;;;;;;;;;4975289;28;20202;-74
2022/01/02 05:25:16;;;;;;;0.00;0.00;;;;;;;;;;4974774;28;20206;-74
2022/01/02 05:27:46;;;;;;;0.00;0.00;;;;;;;;;;4975524;28;20280;-75
2022/01/02 05:30:15;;;;;;;0.10;0.00;;;;;;;;;;4975265;28;20257;-74
2022/01/02 05:32:43;;;;;;;0.00;0.00;;;;;;;;;;4975493;28;20205;-75
2022/01/02 05:35:11;;;;;;;0.00;0.00;;;;;;;;;;4975562;28;20206;-74
2022/01/02 05:37:40;;;;;;;0.00;0.00;;;;;;;;;;4975529;28;20264;-73
2022/01/02 05:40:08;;;;;;;0.20;0.20;;;;;;;;;;4975652;28;20249;-75
2022/01/02 05:42:37;;;;;;;0.10;0.10;;;;;;;;;;4975189;28;20570;-74
2022/01/02 05:45:13;;;;;;;0.10;0.10;;;;;;;;;;5110992;27;20626;-75
2022/01/02 05:47:41;;;;;;;0.00;0.00;;;;;;;;;;5099678;28;20225;-75
2022/01/02 05:50:10;;;;;;;0.00;0.00;;;;;;;;;;5090296;28;20205;-75
2022/01/02 05:52:39;;;;;;;0.00;0.00;;;;;;;;;;5090330;28;20202;-73
2022/01/02 05:55:07;;;;;;;0.00;0.00;;;;;;;;;;5090584;28;20198;-74
2022/01/02 05:57:36;;;;;;;0.00;0.00;;;;;;;;;;5090479;28;20283;-74
2022/01/02 06:00:04;;;;;;;0.00;0.00;;;;;;;;;;5090130;28;20258;-73
2022/01/02 06:02:34;;;;;;;0.03;0.00;;;;;;;;;;5090365;28;20653;-72
2022/01/02 06:05:03;;;;;;;0.00;0.00;;;;;;;;;;5090169;28;20221;-74
2022/01/02 06:07:33;;;;;;;0.40;0.20;;;;;;;;;;5090228;28;20225;-73
2022/01/02 06:10:01;;;;;;;0.00;0.00;;;;;;;;;;5089920;28;20206;-73
2022/01/02 06:12:29;;;;;;;0.10;0.10;;;;;;;;;;5090548;28;20213;-75
2022/01/02 06:14:58;;;;;;;0.00;0.00;;;;;;;;;;5089815;28;20726;-73
2022/01/02 06:17:26;;;;;;;0.00;0.00;;;;;;;;;;5090163;28;20225;-74
2022/01/02 06:19:56;;;;;;;0.10;0.10;;;;;;;;;;5089856;28;20201;-75
2022/01/02 06:22:24;;;;;;;0.00;0.00;;;;;;;;;;5089365;28;20197;-74
2022/01/02 06:24:53;;;;;;;0.00;0.00;;;;;;;;;;5089584;28;20271;-75
2022/01/02 06:27:22;;;;;;;0.00;0.00;;;;;;;;;;5090171;28;20701;-74
2022/01/02 06:29:50;;;;;;;0.20;0.00;;;;;;;;;;5089481;28;20607;-74
2022/01/02 06:32:19;;;;;;;0.30;0.10;;;;;;;;;;5089814;28;20238;-75
2022/01/02 06:34:47;;;;;;;0.00;0.00;;;;;;;;;;5089476;28;20228;-73
2022/01/02 06:37:17;;;;;;;0.00;0.00;;;;;;;;;;5089742;28;20225;-75
2022/01/02 06:39:45;;;;;;;0.00;0.00;;;;;;;;;;5089490;28;20210;-75
2022/01/02 06:42:13;;;;;;;0.00;0.00;;;;;;;;;;5089518;28;20194;-75
2022/01/02 06:44:42;;;;;;;0.00;0.00;;;;;;;;;;5089372;28;20693;-74
2022/01/02 06:47:10;;;;;;;0.17;0.17;;;;;;;;;;5089770;28;20221;-74
2022/01/02 06:49:40;;;;;;;0.00;0.00;;;;;;;;;;5088673;28;20202;-75
2022/01/02 06:52:09;;;;;;;0.00;0.00;;;;;;;;;;5089853;28;20206;-73
2022/01/02 06:54:40;;;;;;;0.00;0.00;;;;;;;;;;5086884;28;20961;-74
2022/01/02 06:57:08;;;;;;;0.00;0.00;;;;;;;;;;5075553;28;20219;-75
2022/01/02 06:59:36;;;;;;;0.00;0.00;;;;;;;;;;5075211;28;20202;-74
2022/01/02 07:02:05;;;;;;;0.13;0.13;;;;;;;;;;5075318;28;20194;-73
2022/01/02 07:04:34;;;;;;;0.00;0.00;;;;;;;;;;5075817;28;20269;-74
2022/01/02 07:07:02;;;;;;;0.03;0.03;;;;;;;;;;5075423;28;20218;-75
2022/01/02 07:09:32;;;;;;;0.33;0.10;;;;;;;;;;5075241;28;20247;-74
2022/01/02 07:12:02;;;;;;;0.00;0.00;;;;;;;;;;5075541;28;20194;-74
2022/01/02 07:14:30;;;;;;;0.00;0.00;;;;;;;;;;5075320;28;20195;-75
2022/01/02 07:16:59;;;;;;;0.00;0.00;;;;;;;;;;5075101;28;20634;-73
2022/01/02 07:19:28;;;;;;;0.00;0.00;;;;;;;;;;5074894;28;20256;-75
2022/01/02 07:21:58;;;;;;;0.00;0.00;;;;;;;;;;5075252;28;20287;-73
2022/01/02 07:24:26;;;;;;;0.27;0.17;;;;;;;;;;5075212;28;20700;-73
2022/01/02 07:26:55;;;;;;;0.10;0.00;;;;;;;;;;5075310;28;20215;-74
2022/01/02 07:29:25;;;;;;;0.10;0.03;;;;;;;;;;5075271;28;20198;-74
2022/01/02 07:31:54;;;;;;;0.17;0.00;;;;;;;;;;5075144;28;20206;-74
2022/01/02 07:34:22;;;;;;;0.30;0.10;;;;;;;;;;5055596;28;20678;-74
2022/01/02 07:36:51;;;;;;;0.00;0.00;;;;;;;;;;5074995;28;20693;-74
2022/01/02 07:39:19;;;;;;;0.10;0.10;;;;;;;;;;5074423;28;20206;-74
2022/01/02 07:41:48;;;;;;;0.93;0.10;;;;;;;;;;5055026;28;20198;-74
2022/01/02 07:44:16;;;;;;;0.00;0.00;;;;;;;;;;5069474;28;20226;-74
2022/01/02 07:46:46;;;;;;;0.00;0.00;;;;;;;;;;5074753;28;20614;-74
2022/01/02 07:49:15;;;;;;;0.73;0.20;;;;;;;;;;5074574;28;20198;-75
2022/01/02 07:51:43;;;;;;;0.00;0.00;;;;;;;;;;5074905;28;20216;-73
2022/01/02 07:54:12;;;;;;;0.00;0.00;;;;;;;;;;5078305;28;20207;-74
2022/01/02 07:56:41;;;;;;;0.00;0.00;;;;;;;;;;5055114;28;20336;-73
2022/01/02 07:59:09;;;;;;;0.00;0.00;;;;;;;;;;5072358;28;20571;-74
2022/01/02 08:01:38;;;;;;;0.67;0.00;;;;;;;;;;5066648;28;20209;-74
2022/01/02 08:04:08;;;;;;;0.13;0.10;;;;;;;;;;5074519;28;20239;-74
2022/01/02 08:06:39;;;;;;;0.43;0.10;;;;;;;;;;5074807;28;20202;-74
2022/01/02 08:09:07;;;;;;;0.20;0.10;;;;;;;;;;5074666;28;20213;-74
2022/01/02 08:11:36;;;;;;;0.10;0.10;;;;;;;;;;5077296;28;20195;-75
2022/01/02 08:14:16;;;;;;;0.23;0.03;;;;;;;;;;5074039;28;20194;-74
2022/01/02 08:16:45;;;;;;;0.00;0.00;;;;;;;;;;5074252;28;20214;-73
2022/01/02 08:19:15;;;;;;;0.10;0.10;;;;;;;;;;5074473;28;20209;-74
2022/01/02 08:21:43;;;;;;;0.20;0.10;;;;;;;;;;5073854;28;20199;-73
2022/01/02 08:24:12;;;;;;;0.00;0.00;;;;;;;;;;5082676;28;20557;-73
2022/01/02 08:26:40;;;;;;;0.00;0.00;;;;;;;;;;5075399;28;20309;-75
2022/01/02 08:29:09;;;;;;;0.10;0.10;;;;;;;;;;5074952;28;20329;-74
2022/01/02 08:31:37;;;;;;;0.10;0.10;;;;;;;;;;5074001;28;20202;-76
2022/01/02 08:34:06;;;;;;;0.83;0.27;;;;;;;;;;5074717;28;20226;-74
2022/01/02 08:36:36;;;;;;;0.10;0.10;;;;;;;;;;5080302;28;20195;-77
2022/01/02 08:39:04;;;;;;;0.13;0.13;;;;;;;;;;5074491;28;20202;-74
2022/01/02 08:41:32;;;;;;;0.03;0.03;;;;;;;;;;5070621;28;20248;-75
2022/01/02 08:44:01;;;;;;;0.07;0.07;;;;;;;;;;5073347;28;20256;-73
2022/01/02 08:46:31;;;;;;;0.43;0.20;;;;;;;;;;5071373;28;20627;-74
2022/01/02 08:49:00;;;;;;;1.10;0.20;;;;;;;;;;5073695;28;20210;-74
2022/01/02 08:51:29;;;;;;;0.10;0.10;;;;;;;;;;5073248;28;20198;-74
2022/01/02 08:53:59;;;;;;;0.10;0.10;;;;;;;;;;5074160;28;20202;-75
2022/01/02 08:56:28;;;;;;;0.10;0.10;;;;;;;;;;5073836;28;20238;-72
2022/01/02 08:58:56;;;;;;;0.30;0.10;;;;;;;;;;5073123;28;20203;-73
2022/01/02 09:01:24;;;;;;;0.10;0.10;;;;;;;;;;5073217;28;20202;-74
2022/01/02 09:03:53;;;;;;;0.73;0.20;;;;;;;;;;5069502;28;20606;-73
2022/01/02 09:06:21;;;;;;;0.30;0.20;;;;;;;;;;5073038;28;20577;-74
2022/01/02 09:08:50;;;;;;;0.00;0.00;;;;;;;;;;5067211;28;20721;-75
2022/01/02 09:11:20;;;;;;;0.00;0.00;;;;;;;;;;5069781;28;20603;-74
2022/01/02 09:13:48;;;;;;;0.10;0.10;;;;;;;;;;5072876;28;20207;-75
2022/01/02 09:16:17;;;;;;;0.00;0.00;;;;;;;;;;5071667;28;20199;-74
2022/01/02 09:18:46;;;;;;;0.00;0.00;;;;;;;;;;5072607;28;20198;-73
2022/01/02 09:21:14;;;;;;;0.20;0.20;;;;;;;;;;5075659;28;20198;-76
2022/01/02 09:23:43;;;;;;;0.00;0.00;;;;;;;;;;5071908;28;20260;-75
2022/01/02 09:26:11;;;;;;;0.00;0.00;;;;;;;;;;5062954;28;20276;-74
2022/01/02 09:28:41;;;;;;;0.10;0.00;;;;;;;;;;5075741;28;20247;-74
2022/01/02 09:31:09;;;;;;;0.00;0.00;;;;;;;;;;5074942;28;20206;-74
2022/01/02 09:33:38;;;;;;;0.10;0.10;;;;;;;;;;5075787;28;20662;-75
2022/01/02 09:36:06;;;;;;;0.10;0.10;;;;;;;;;;5072492;28;20251;-74
2022/01/02 09:38:35;;;;;;;0.00;0.00;;;;;;;;;;5067916;28;20606;-74
2022/01/02 09:41:03;;;;;;;0.10;0.10;;;;;;;;;;5080068;28;20210;-75
2022/01/02 09:43:31;;;;;;;0.00;0.00;;;;;;;;;;5069785;28;20283;-75
2022/01/02 09:46:03;;;;;;;0.10;0.10;;;;;;;;;;5070698;28;20230;-75
2022/01/02 09:48:32;;;;;;;0.00;0.00;;;;;;;;;;5072252;28;20218;-76
2022/01/02 09:51:01;;;;;;;0.60;0.10;;;;;;;;;;5070384;28;20206;-73
2022/01/02 09:53:29;;;;;;;0.23;0.10;;;;;;;;;;5073636;28;20210;-75
2022/01/02 09:55:58;;;;;;;0.20;0.10;;;;;;;;;;5071818;28;20194;-74
2022/01/02 09:58:26;;;;;;;0.20;0.20;;;;;;;;;;5072933;28;20215;-73
2022/01/02 10:00:55;;;;;;;0.10;0.10;;;;;;;;;;5071531;28;20222;-74
2022/01/02 10:03:25;;;;;;;0.00;0.00;;;;;;;;;;5070203;28;20210;-74
2022/01/02 10:05:54;;;;;;;0.10;0.10;;;;;;;;;;5072585;28;20735;-74
2022/01/02 10:08:24;;;;;;;0.10;0.10;;;;;;;;;;5071391;28;20230;-75
2022/01/02 10:11:00;;;;;;;0.17;0.17;;;;;;;;;;5071278;28;20198;-74
2022/01/02 10:13:41;;;;;;;0.00;0.00;;;;;;;;;;5071662;28;20198;-72
2022/01/02 10:16:23;;;;;;;0.00;0.00;;;;;;;;;;5071793;28;20203;-74
2022/01/02 10:18:55;;;;;;;0.43;0.10;;;;;;;;;;5070895;28;20234;-73
2022/01/02 10:21:34;;;;;;;0.00;0.00;;;;;;;;;;5070588;28;20206;-74
2022/01/02 10:24:12;;;;;;;0.00;0.00;;;;;;;;;;5066263;27;20300;-72
2022/01/02 10:26:41;;;;;;;0.00;0.00;;;;;;;;;;5070666;28;20244;-74
2022/01/02 10:29:15;;;;;;;0.00;0.00;;;;;;;;;;5072001;28;20745;-72
2022/01/02 10:31:44;;;;;;;0.00;0.00;;;;;;;;;;5073032;28;20198;-72
2022/01/02 10:34:14;;;;;;;0.10;0.10;;;;;;;;;;5072383;28;20206;-73
2022/01/02 10:36:44;;;;;;;0.07;0.07;;;;;;;;;;5075031;28;20210;-74
2022/01/02 10:39:15;;;;;;;0.00;0.00;;;;;;;;;;5071040;28;20205;-73
2022/01/02 10:41:45;;;;;;;0.00;0.00;;;;;;;;;;5074446;28;20213;-72
2022/01/02 10:44:21;;;;;;;0.00;0.00;;;;;;;;;;5077516;28;20218;-73
2022/01/02 10:47:05;;;;;;;0.00;0.00;;;;;;;;;;5079400;28;20696;-73
2022/01/02 10:49:48;;;;;;;0.00;0.00;;;;;;;;;;5069715;28;20615;-73
2022/01/02 10:52:21;;;;;;;0.00;0.00;;;;;;;;;;5075432;28;20206;-73
2022/01/02 10:54:50;;;;;;;0.00;0.00;;;;;;;;;;5077963;28;20198;-73
2022/01/02 10:57:19;;;;;;;0.00;0.00;;;;;;;;;;5088389;28;20323;-73
2022/01/02 10:59:47;;;;;;;0.00;0.00;;;;;;;;;;5080053;28;20203;-74
2022/01/02 11:02:17;;;;;;;0.00;0.00;;;;;;;;;;5080315;28;20792;-74
2022/01/02 11:04:51;;;;;;;0.00;0.00;;;;;;;;;;5075579;28;20208;-72
2022/01/02 11:07:22;;;;;;;0.00;0.00;;;;;;;;;;5071790;28;20226;-72
2022/01/02 11:09:53;;;;;;;0.00;0.00;;;;;;;;;;5075319;28;20259;-74
2022/01/02 11:12:27;;;;;;;0.00;0.00;;;;;;;;;;5075558;28;20711;-72
2022/01/02 11:14:56;;;;;;;0.00;0.00;;;;;;;;;;5075561;28;20198;-74
2022/01/02 11:17:25;;;;;;;0.00;0.00;;;;;;;;;;5074174;28;20225;-72
2022/01/02 11:19:55;;;;;;;0.00;0.00;;;;;;;;;;5070817;28;20198;-72
2022/01/02 11:22:27;;;;;;;0.00;0.00;;;;;;;;;;5075209;28;20199;-73
2022/01/02 11:25:00;;;;;;;0.00;0.00;;;;;;;;;;5075014;28;20268;-74
2022/01/02 11:27:35;;;;;;;0.00;0.00;;;;;;;;;;4721835;27;10000204;-72
2022/01/02 11:30:18;;;;;;;0.00;0.00;;;;;;;;;;5071138;28;20603;-73
2022/01/02 11:33:00;;;;;;;0.00;0.00;;;;;;;;;;5067229;28;20747;-73
2022/01/02 11:35:31;;;;;;;0.00;0.00;;;;;;;;;;5075438;28;20565;-74
2022/01/02 11:38:01;;;;;;;0.00;0.00;;;;;;;;;;5072005;28;20257;-77
2022/01/02 11:40:46;;;;;;;0.00;0.00;;;;;;;;;;5068184;28;20279;-73
2022/01/02 11:43:29;;;;;;;0.00;0.00;;;;;;;;;;5067057;28;20606;-73
2022/01/02 11:46:15;;;;;;;0.00;0.00;;;;;;;;;;5071837;28;20240;-74
2022/01/02 11:48:43;;;;;;;0.00;0.00;;;;;;;;;;5072379;28;20240;-73
2022/01/02 11:51:15;;;;;;;0.00;0.00;;;;;;;;;;5071549;28;20256;-73
2022/01/02 11:53:54;;;;;;;0.00;0.00;;;;;;;;;;5071579;28;20202;-73
2022/01/02 11:56:33;;;;;;;0.00;0.00;;;;;;;;;;5076211;28;20190;-73
2022/01/02 11:59:02;;;;;;;0.00;0.00;;;;;;;;;;5071059;28;20252;-74
2022/01/02 12:01:48;;;;;;;0.00;0.00;;;;;;;;;;5078147;28;20263;-75
2022/01/02 12:04:18;;;;;;;0.00;0.00;;;;;;;;;;5072405;28;20225;-72
2022/01/02 12:06:52;;;;;;;0.00;0.00;;;;;;;;;;5072947;28;20241;-74
2022/01/02 12:09:36;;;;;;;0.00;0.00;;;;;;;;;;5073794;28;20194;-74
2022/01/02 12:12:06;;;;;;;0.00;0.00;;;;;;;;;;5070123;28;20301;-76
2022/01/02 12:14:52;;;;;;;0.00;0.00;;;;;;;;;;5076160;28;20209;-73
2022/01/02 12:17:24;;;;;;;0.00;0.00;;;;;;;;;;5067812;28;20276;-73
2022/01/02 12:20:03;;;;;;;0.00;0.00;;;;;;;;;;5071177;28;20202;-75
2022/01/02 12:22:48;;;;;;;0.00;0.00;;;;;;;;;;5071485;28;20688;-73
2022/01/02 12:25:18;;;;;;;0.00;0.00;;;;;;;;;;5070254;28;20216;-72
2022/01/02 12:27:50;;;;;;;0.00;0.00;;;;;;;;;;5072127;28;20226;-73
2022/01/02 12:30:19;;;;;;;0.00;0.00;;;;;;;;;;5071099;28;20293;-74
2022/01/02 12:32:48;;;;;;;0.00;0.00;;;;;;;;;;5081019;28;20209;-75
2022/01/02 12:35:17;;;;;;;0.00;0.00;;;;;;;;;;5070676;28;20602;-73
2022/01/02 12:37:47;;;;;;;0.00;0.00;;;;;;;;;;5071651;28;20280;-73
2022/01/02 12:40:16;;;;;;;0.00;0.00;;;;;;;;;;5067106;28;20202;-74
2022/01/02 12:42:45;;;;;;;0.00;0.00;;;;;;;;;;5071960;28;20630;-75
2022/01/02 12:45:13;;;;;;;0.00;0.00;;;;;;;;;;5070795;28;20827;-74
2022/01/02 12:47:55;;;;;;;0.00;0.00;;;;;;;;;;5070054;28;20222;-75
2022/01/02 12:50:24;;;;;;;0.00;0.00;;;;;;;;;;5070838;28;20202;-72
2022/01/02 12:52:55;;;;;;;0.00;0.00;;;;;;;;;;5069991;28;20237;-73
2022/01/02 12:55:24;;;;;;;0.00;0.00;;;;;;;;;;5070553;28;20195;-73
2022/01/02 12:58:02;;;;;;;0.00;0.00;;;;;;;;;;5085357;28;20218;-73
2022/01/02 13:00:30;;;;;;;0.00;0.00;;;;;;;;;;5090191;28;20266;-73
2022/01/02 13:02:59;;;;;;;0.00;0.00;;;;;;;;;;5081650;28;20256;-73
2022/01/02 13:05:28;;;;;;;0.00;0.00;;;;;;;;;;5070287;28;20202;-73
2022/01/02 13:08:02;;;;;;;0.00;0.00;;;;;;;;;;5070221;28;20226;-73
2022/01/02 13:10:31;;;;;;;0.00;0.00;;;;;;;;;;5070304;28;20194;-73
2022/01/02 13:12:59;;;;;;;0.00;0.00;;;;;;;;;;5069595;28;20567;-73
2022/01/02 13:15:27;;;;;;;0.00;0.00;;;;;;;;;;5070162;28;20206;-73
2022/01/02 13:17:57;;;;;;;0.00;0.00;;;;;;;;;;5070366;28;20249;-72
2022/01/02 13:20:38;;;;;;;0.00;0.00;;;;;;;;;;5080329;28;20194;-72
2022/01/02 13:23:08;;;;;;;0.00;0.00;;;;;;;;;;5091887;28;20201;-73
2022/01/02 13:25:38;;;;;;;0.00;0.00;;;;;;;;;;5076646;28;20252;-73
2022/01/02 13:28:14;;;;;;;0.00;0.00;;;;;;;;;;5071503;28;20230;-72
2022/01/02 13:30:50;;;;;;;0.00;0.00;;;;;;;;;;5080035;28;20235;-73
2022/01/02 13:33:19;;;;;;;0.00;0.00;;;;;;;;;;5076932;28;20198;-73
2022/01/02 13:35:47;;;;;;;0.00;0.00;;;;;;;;;;5065082;28;20248;-72
2022/01/02 13:38:17;;;;;;;0.00;0.00;;;;;;;;;;5072361;28;20230;-72
2022/01/02 13:40:47;;;;;;;0.00;0.00;;;;;;;;;;5075766;28;20197;-72
2022/01/02 13:43:16;;;;;;;0.00;0.00;;;;;;;;;;5055002;28;20230;-73
2022/01/02 13:45:46;;;;;;;0.00;0.00;;;;;;;;;;5077269;28;20653;-72
2022/01/02 13:48:15;;;;;;;0.00;0.00;;;;;;;;;;5093061;28;20225;-72
2022/01/02 13:50:45;;;;;;;0.00;0.00;;;;;;;;;;5079682;28;20200;-72
2022/01/02 13:53:16;;;;;;;0.00;0.00;;;;;;;;;;5088088;28;20201;-73
2022/01/02 13:55:48;;;;;;;0.00;0.00;;;;;;;;;;5069691;28;20234;-73
2022/01/02 13:58:18;;;;;;;0.00;0.00;;;;;;;;;;5066388;27;20222;-72
2022/01/02 14:00:47;;;;;;;0.00;0.00;;;;;;;;;;5074422;28;20652;-73
2022/01/02 14:03:31;;;;;;;0.00;0.00;;;;;;;;;;5086296;28;20282;-72
2022/01/02 14:06:00;;;;;;;0.00;0.00;;;;;;;;;;5066621;28;20213;-73
2022/01/02 14:08:28;;;;;;;0.00;0.00;;;;;;;;;;5086535;28;20629;-72
2022/01/02 14:11:05;;;;;;;0.00;0.00;;;;;;;;;;5077508;28;20727;-72
2022/01/02 14:13:38;;;;;;;0.00;0.00;;;;;;;;;;5072221;28;20206;-73
2022/01/02 14:16:06;;;;;;;0.00;0.00;;;;;;;;;;5072098;28;20731;-73
2022/01/02 14:18:35;;;;;;;0.00;0.00;;;;;;;;;;5072583;28;20218;-73
2022/01/02 14:21:03;;;;;;;0.00;0.00;;;;;;;;;;5072054;28;20203;-74
2022/01/02 14:23:32;;;;;;;0.00;0.00;;;;;;;;;;5075793;28;20207;-71
2022/01/02 14:26:00;;;;;;;0.00;0.00;;;;;;;;;;5065595;28;20202;-72
2022/01/02 14:28:30;;;;;;;0.00;0.00;;;;;;;;;;5081772;28;20278;-71
2022/01/02 14:30:59;;;;;;;0.00;0.00;;;;;;;;;;5089225;28;20263;-74
2022/01/02 14:33:27;;;;;;;0.00;0.00;;;;;;;;;;5078690;28;20202;-72
2022/01/02 14:35:56;;;;;;;0.00;0.00;;;;;;;;;;5067701;28;20548;-72
2022/01/02 14:38:24;;;;;;;0.00;0.00;;;;;;;;;;5083213;28;20222;-74
2022/01/02 14:40:54;;;;;;;0.00;0.00;;;;;;;;;;5091273;28;20234;-73
2022/01/02 14:43:23;;;;;;;0.00;0.00;;;;;;;;;;5082351;28;20213;-73
2022/01/02 14:45:52;;;;;;;0.00;0.00;;;;;;;;;;5072923;28;20222;-72
2022/01/02 14:48:23;;;;;;;0.00;0.00;;;;;;;;;;5074364;28;20225;-73
2022/01/02 14:50:51;;;;;;;0.00;0.00;;;;;;;;;;4725703;28;10000594;-72
2022/01/02 14:53:20;;;;;;;0.00;0.00;;;;;;;;;;5074391;28;20213;-73
2022/01/02 14:55:48;;;;;;;0.00;0.00;;;;;;;;;;5075357;28;20248;-72
2022/01/02 14:58:17;;;;;;;0.00;0.00;;;;;;;;;;5073075;28;20210;-72
2022/01/02 15:00:45;;;;;;;0.00;0.00;;;;;;;;;;5088184;28;20254;-72
2022/01/02 15:03:15;;;;;;;0.00;0.00;;;;;;;;;;5079168;28;20210;-72
2022/01/02 15:05:44;;;;;;;0.00;0.00;;;;;;;;;;5075421;28;20582;-73